Time;durP1;ratioP1;P1;durP2;ratioP2;P2;SDS_P1;SDS_P2;PMS_P1;PMS_P2;Temp;Humidity;BMP_temperature;BMP_pressure;BME280_temperature;BME280_humidity;BME280_pressure;Samples;Min_cycle;Max_cycle;Signal;HPM_P1;HPM_P2
2023/01/26 00:00:56;;;;;;;;;;;-1.10;99.90;;;;;;5106048;27;20131;-66
2023/01/26 00:03:23;;;;;;;43.53;25.42;;;-1.10;99.90;;;;;;5100798;27;20496;-66
2023/01/26 00:05:49;;;;;;;46.65;22.65;;;-1.10;99.90;;;;;;5102997;27;20487;-66
2023/01/26 00:08:16;;;;;;;;;;;-1.10;99.90;;;;;;5102095;27;20047;-65
2023/01/26 00:10:49;;;;;;;45.92;23.45;;;-1.10;99.90;;;;;;5103222;27;20172;-65
2023/01/26 00:13:21;;;;;;;43.60;23.85;;;-1.10;99.90;;;;;;5103617;27;20140;-64
2023/01/26 00:15:48;;;;;;;42.92;25.05;;;-1.10;99.90;;;;;;5102951;27;20474;-65
2023/01/26 00:18:15;;;;;;;;;;;-1.10;99.90;;;;;;5104621;27;20252;-66
2023/01/26 00:20:41;;;;;;;40.47;22.13;;;-1.10;99.90;;;;;;5101972;27;19992;-65
2023/01/26 00:23:08;;;;;;;;;;;-1.10;99.90;;;;;;5105193;27;20489;-65
2023/01/26 00:25:38;;;;;;;49.22;25.00;;;-1.10;99.90;;;;;;5102013;27;19928;-65
2023/01/26 00:28:05;;;;;;;52.25;26.67;;;-1.10;99.90;;;;;;5101984;27;20545;-66
2023/01/26 00:30:32;;;;;;;;;;;-1.00;99.90;;;;;;5100815;27;20454;-66
2023/01/26 00:32:58;;;;;;;48.80;25.42;;;-1.10;99.90;;;;;;5083542;27;19992;-65
2023/01/26 00:35:25;;;;;;;;;;;-1.10;99.90;;;;;;5101542;27;20035;-65
2023/01/26 00:37:53;;;;;;;50.22;25.98;;;-1.10;99.90;;;;;;5088591;27;20041;-66
2023/01/26 00:40:20;;;;;;;47.50;25.10;;;-1.00;99.90;;;;;;5092833;27;20772;-65
2023/01/26 00:42:46;;;;;;;;;;;-1.10;99.90;;;;;;5086781;27;20131;-65
2023/01/26 00:45:13;;;;;;;44.92;23.65;;;-1.00;99.90;;;;;;5097431;27;19933;-65
2023/01/26 00:47:40;;;;;;;51.53;27.88;;;-1.00;99.90;;;;;;5095331;27;20043;-64
2023/01/26 00:50:08;;;;;;;51.55;27.42;;;-1.00;99.90;;;;;;5103477;27;20114;-65
2023/01/26 00:52:35;;;;;;;50.90;26.55;;;-1.00;99.90;;;;;;5100696;27;20057;-65
2023/01/26 00:55:02;;;;;;;;;;;-1.00;99.90;;;;;;5084207;27;20127;-66
2023/01/26 00:57:28;;;;;;;47.53;25.15;;;-1.00;99.90;;;;;;5101844;27;20329;-65
2023/01/26 00:59:55;;;;;;;50.95;27.88;;;-1.00;99.90;;;;;;5102539;27;20043;-64
2023/01/26 01:02:24;;;;;;;50.58;28.65;;;-1.00;99.90;;;;;;5103261;27;20446;-65
2023/01/26 01:04:50;;;;;;;52.70;28.95;;;-1.00;99.90;;;;;;5091743;28;20237;-65
2023/01/26 01:07:17;;;;;;;53.60;29.20;;;-1.00;99.90;;;;;;5084797;27;20169;-65
2023/01/26 01:09:45;;;;;;;54.97;29.70;;;-1.00;99.90;;;;;;5100327;27;20043;-66
2023/01/26 01:12:12;;;;;;;54.38;28.58;;;-1.00;99.90;;;;;;5105301;27;20099;-65
2023/01/26 01:14:38;;;;;;;54.75;28.25;;;-1.00;99.90;;;;;;5103637;27;20043;-65
2023/01/26 01:17:05;;;;;;;;;;;-1.00;99.90;;;;;;5086316;27;20286;-65
2023/01/26 01:19:33;;;;;;;59.08;28.10;;;-1.00;99.90;;;;;;5082816;28;20165;-64
2023/01/26 01:22:00;;;;;;;;;;;-1.00;99.90;;;;;;5092042;27;20058;-64
2023/01/26 01:24:27;;;;;;;50.45;25.77;;;-1.00;99.90;;;;;;5104416;27;19973;-65
2023/01/26 01:26:53;;;;;;;54.00;28.77;;;-1.00;99.90;;;;;;5091932;28;20563;-64
2023/01/26 01:29:20;;;;;;;;;;;-1.00;99.90;;;;;;5091406;27;20041;-66
2023/01/26 01:31:47;;;;;;;51.65;26.55;;;-1.00;99.90;;;;;;5086773;28;19924;-65
2023/01/26 01:34:13;;;;;;;;;;;-1.00;99.90;;;;;;5102370;27;20304;-65
2023/01/26 01:36:40;;;;;;;49.45;24.90;;;-1.00;99.90;;;;;;5100379;27;19927;-65
2023/01/26 01:39:07;;;;;;;;;;;-1.00;99.90;;;;;;5102076;27;20068;-65
2023/01/26 01:41:34;;;;;;;54.05;26.85;;;-1.00;99.90;;;;;;5077764;28;19991;-66
2023/01/26 01:44:22;;;;;;;50.38;26.98;;;-1.10;99.90;;;;;;5090144;27;20051;-65
2023/01/26 01:46:57;;;;;;;49.22;25.92;;;-1.00;99.90;;;;;;5097421;27;20043;-65
2023/01/26 01:49:49;;;;;;;53.20;27.10;;;-1.10;99.90;;;;;;5100679;27;20097;-64
2023/01/26 01:52:24;;;;;;;46.13;26.15;;;-1.10;99.90;;;;;;5083859;27;20415;-65
2023/01/26 01:55:00;;;;;;;53.65;27.23;;;-1.00;99.90;;;;;;5082128;28;20546;-65
2023/01/26 01:57:43;;;;;;;58.25;28.77;;;-1.00;99.90;;;;;;5088962;28;20038;-64
2023/01/26 02:00:13;;;;;;;56.38;28.75;;;-1.00;99.90;;;;;;5081931;27;20096;-65
2023/01/26 02:02:43;;;;;;;57.10;28.58;;;-1.00;99.90;;;;;;5101470;27;20112;-65
2023/01/26 02:05:24;;;;;;;58.13;28.08;;;-1.00;99.90;;;;;;5105080;27;20150;-65
2023/01/26 02:07:50;;;;;;;54.35;27.02;;;-1.00;99.90;;;;;;5099099;27;20039;-65
2023/01/26 02:10:19;;;;;;;52.40;27.35;;;-1.00;99.90;;;;;;5102935;27;20457;-64
2023/01/26 02:12:50;;;;;;;52.60;27.90;;;-1.00;99.90;;;;;;5090032;28;20039;-65
2023/01/26 02:15:17;;;;;;;52.45;28.52;;;-1.10;99.90;;;;;;5090856;27;20108;-65
2023/01/26 02:17:44;;;;;;;57.22;27.65;;;-1.10;99.90;;;;;;5080880;28;20063;-65
2023/01/26 02:20:50;;;;;;;52.88;28.55;;;-1.10;99.90;;;;;;5101982;27;20754;-65
2023/01/26 02:23:35;;;;;;;55.03;27.27;;;-1.10;99.90;;;;;;5082243;27;20493;-65
2023/01/26 02:26:08;;;;;;;53.28;25.83;;;-1.10;99.90;;;;;;5083096;27;20283;-64
2023/01/26 02:28:34;;;;;;;58.92;29.40;;;-1.10;99.90;;;;;;5080997;28;20047;-64
2023/01/26 02:31:02;;;;;;;;;;;-1.20;99.90;;;;;;5102074;27;20337;-65
2023/01/26 02:33:29;;;;;;;;;;;-1.20;99.90;;;;;;5086649;27;19924;-65
2023/01/26 02:36:01;;;;;;;52.42;25.05;;;-1.10;99.90;;;;;;5094619;27;20241;-63
2023/01/26 02:39:07;;;;;;;48.88;25.67;;;-1.10;99.90;;;;;;5083045;27;20505;-63
2023/01/26 02:44:22;;;;;;;53.63;26.33;;;-1.20;99.90;;;;;;5094814;27;20392;-63
2023/01/26 02:46:49;;;;;;;54.97;29.30;;;-1.20;99.90;;;;;;5094659;27;20050;-63
2023/01/26 02:52:04;;;;;;;52.72;28.63;;;-1.20;99.90;;;;;;5085232;27;20085;-64
2023/01/26 02:57:18;;;;;;;48.80;26.80;;;-1.20;99.90;;;;;;5106915;27;21073;-63
2023/01/26 02:59:44;;;;;;;49.45;25.83;;;-1.20;99.90;;;;;;5093846;27;20049;-63
2023/01/26 03:02:13;;;;;;;60.03;29.45;;;-1.20;99.90;;;;;;5086253;27;20230;-63
2023/01/26 03:04:40;;;;;;;52.83;27.55;;;-1.30;99.90;;;;;;5088363;27;20047;-64
2023/01/26 03:07:07;;;;;;;57.58;28.98;;;-1.30;99.90;;;;;;5087064;27;20055;-63
2023/01/26 03:09:34;;;;;;;;;;;-1.30;99.90;;;;;;5086059;27;20050;-63
2023/01/26 03:12:01;;;;;;;53.55;26.83;;;-1.30;99.90;;;;;;5104549;27;19927;-62
2023/01/26 03:14:28;;;;;;;50.85;24.60;;;-1.30;99.90;;;;;;5083790;27;20047;-63
2023/01/26 03:16:54;;;;;;;;;;;-1.30;99.90;;;;;;5086699;27;20340;-63
2023/01/26 03:27:46;;;;;;;58.50;29.63;;;-1.30;99.90;;;;;;5085433;27;20051;-63
2023/01/26 03:30:18;;;;;;;54.40;25.92;;;-1.30;99.90;;;;;;5093136;27;20083;-65
2023/01/26 03:32:47;;;;;;;51.35;23.85;;;-1.30;99.90;;;;;;5084793;27;20143;-62
2023/01/26 03:35:21;;;;;;;60.35;30.60;;;-1.30;99.90;;;;;;5103712;27;20035;-63
2023/01/26 03:37:53;;;;;;;53.40;27.48;;;-1.30;99.90;;;;;;5082375;27;20049;-65
2023/01/26 03:57:23;;;;;;;63.78;29.95;;;-1.30;99.90;;;;;;5077571;27;20384;-64
2023/01/26 03:59:50;;;;;;;;;;;-1.30;99.90;;;;;;5085503;27;20040;-64
2023/01/26 04:10:49;;;;;;;55.38;26.45;;;-1.30;99.90;;;;;;5091956;27;20505;-63
2023/01/26 04:21:40;;;;;;;48.53;24.13;;;-1.30;99.90;;;;;;5086841;27;20342;-64
2023/01/26 04:24:15;;;;;;;56.72;26.38;;;-1.30;99.90;;;;;;5086440;27;20040;-65
2023/01/26 04:26:44;;;;;;;58.65;27.85;;;-1.30;99.90;;;;;;5085257;27;20154;-65
2023/01/26 04:29:16;;;;;;;55.50;26.40;;;-1.30;99.90;;;;;;5101027;27;20043;-65
2023/01/26 04:31:44;;;;;;;51.47;25.80;;;-1.20;99.90;;;;;;5091837;27;20050;-65
2023/01/26 04:34:14;;;;;;;53.80;26.90;;;-1.30;99.90;;;;;;5083920;27;20170;-65
2023/01/26 04:36:42;;;;;;;55.25;28.55;;;-1.20;99.90;;;;;;5082786;27;20065;-65
2023/01/26 04:39:09;;;;;;;49.35;24.58;;;-1.20;99.90;;;;;;5085009;27;20199;-66
2023/01/26 04:41:42;;;;;;;58.70;28.73;;;-1.30;99.90;;;;;;5087171;27;20524;-65
2023/01/26 04:44:12;;;;;;;56.03;27.70;;;-1.30;99.90;;;;;;5101936;27;20130;-65
2023/01/26 04:46:39;;;;;;;57.50;26.77;;;-1.30;99.90;;;;;;5085075;27;20138;-65
2023/01/26 04:49:06;;;;;;;54.60;28.00;;;-1.30;99.90;;;;;;5081207;27;20058;-65
2023/01/26 04:51:33;;;;;;;60.97;28.73;;;-1.30;99.90;;;;;;5090393;27;20626;-65
2023/01/26 04:54:00;;;;;;;59.40;27.92;;;-1.40;99.90;;;;;;5103098;27;20047;-64
2023/01/26 04:56:29;;;;;;;63.88;29.63;;;-1.40;99.90;;;;;;5086352;27;20105;-64
2023/01/26 04:58:59;;;;;;;66.53;29.70;;;-1.40;99.90;;;;;;5084329;27;20520;-63
2023/01/26 05:01:26;;;;;;;59.60;28.05;;;-1.40;99.90;;;;;;5084437;27;20575;-64
2023/01/26 05:03:53;;;;;;;63.92;30.25;;;-1.40;99.90;;;;;;5092464;27;20047;-64
2023/01/26 05:06:21;;;;;;;61.90;29.92;;;-1.40;99.90;;;;;;5091439;27;20567;-64
2023/01/26 05:08:49;;;;;;;60.00;27.45;;;-1.40;99.90;;;;;;5082949;27;20069;-65
2023/01/26 05:11:18;;;;;;;63.33;28.60;;;-1.40;99.90;;;;;;5092707;27;20044;-64
2023/01/26 05:14:03;;;;;;;55.55;26.70;;;-1.40;99.90;;;;;;5103741;27;20055;-62
2023/01/26 05:16:54;;;;;;;60.78;28.88;;;-1.50;99.90;;;;;;5083816;28;20048;-63
2023/01/26 05:19:47;;;;;;;67.53;31.60;;;-1.40;99.90;;;;;;5080640;27;20070;-63
2023/01/26 05:22:19;;;;;;;64.68;30.17;;;-1.40;99.90;;;;;;5084525;27;20555;-63
2023/01/26 05:25:06;;;;;;;62.85;28.98;;;-1.40;99.90;;;;;;5103650;27;20138;-52
2023/01/26 05:27:40;;;;;;;58.35;28.25;;;-1.40;99.90;;;;;;5103275;27;20070;-48
2023/01/26 05:30:07;;;;;;;66.72;30.55;;;-1.50;99.90;;;;;;5103554;27;20059;-48
2023/01/26 05:32:37;;;;;;;63.70;28.45;;;-1.40;99.90;;;;;;5090913;28;20040;-51
2023/01/26 05:35:06;;;;;;;77.32;31.20;;;-1.40;99.90;;;;;;5083288;27;20492;-48
2023/01/26 05:37:33;;;;;;;72.28;30.92;;;-1.40;99.90;;;;;;5084795;28;20107;-52
2023/01/26 05:40:00;;;;;;;58.45;27.80;;;-1.40;99.90;;;;;;5104609;27;20038;-49
2023/01/26 05:42:28;;;;;;;61.35;28.15;;;-1.40;99.90;;;;;;5088185;28;20129;-50
2023/01/26 05:45:06;;;;;;;60.03;27.58;;;-1.40;99.90;;;;;;5086971;27;20096;-52
2023/01/26 05:47:34;;;;;;;66.53;28.85;;;-1.40;99.90;;;;;;5084148;28;20189;-51
2023/01/26 05:50:01;;;;;;;51.53;26.77;;;-1.40;99.90;;;;;;5085629;27;20047;-50
2023/01/26 05:52:30;;;;;;;63.75;28.20;;;-1.40;99.90;;;;;;5078463;28;20369;-54
2023/01/26 05:54:58;;;;;;;68.53;29.95;;;-1.30;99.90;;;;;;5085083;28;20515;-54
2023/01/26 05:57:25;;;;;;;62.65;28.27;;;-1.30;99.90;;;;;;5085805;28;20051;-53
2023/01/26 05:59:56;;;;;;;63.80;28.00;;;-1.30;99.90;;;;;;5089753;28;20616;-52
2023/01/26 06:02:26;;;;;;;65.88;30.25;;;-1.30;99.90;;;;;;5089126;27;20062;-51
2023/01/26 06:04:52;;;;;;;60.67;27.85;;;-1.30;99.90;;;;;;5092514;28;20504;-52
2023/01/26 06:07:19;;;;;;;59.88;27.60;;;-1.30;99.90;;;;;;5095043;27;21231;-53
2023/01/26 06:09:55;;;;;;;60.05;25.88;;;-1.20;99.90;;;;;;5106430;27;20067;-52
2023/01/26 06:12:41;;;;;;;58.35;27.85;;;-1.30;99.90;;;;;;5095649;27;20048;-53
2023/01/26 06:15:31;;;;;;;55.10;25.40;;;-1.30;99.90;;;;;;5087280;27;20128;-54
2023/01/26 06:17:59;;;;;;;;;;;-1.30;99.90;;;;;;5104467;27;20151;-50
2023/01/26 06:20:26;;;;;;;57.63;24.38;;;-1.30;99.90;;;;;;5086873;27;20054;-53
2023/01/26 06:23:03;;;;;;;53.08;24.63;;;-1.30;99.90;;;;;;5095890;27;20503;-53
2023/01/26 06:25:33;;;;;;;52.70;23.20;;;-1.30;99.90;;;;;;5089489;27;20043;-54
2023/01/26 06:28:00;;;;;;;62.83;26.13;;;-1.30;99.90;;;;;;5105867;27;20111;-53
2023/01/26 06:30:28;;;;;;;51.65;25.77;;;-1.30;99.90;;;;;;5089343;27;20039;-52
2023/01/26 06:33:00;;;;;;;55.25;23.85;;;-1.30;99.90;;;;;;5095211;27;20054;-50
2023/01/26 06:35:28;;;;;;;47.83;21.15;;;-1.30;99.90;;;;;;5104013;27;20039;-52
2023/01/26 06:37:58;;;;;;;48.75;22.50;;;-1.30;99.90;;;;;;5086998;27;20031;-49
2023/01/26 06:40:24;;;;;;;;;;;-1.30;99.90;;;;;;5095973;27;20035;-52
2023/01/26 06:42:51;;;;;;;56.78;25.27;;;-1.30;99.90;;;;;;5095031;27;20259;-54
2023/01/26 06:45:19;;;;;;;68.22;25.48;;;-1.30;99.90;;;;;;5090862;27;20036;-52
2023/01/26 06:47:48;;;;;;;53.45;24.70;;;-1.30;99.90;;;;;;5088467;27;20039;-51
2023/01/26 06:50:18;;;;;;;56.53;22.83;;;-1.30;99.90;;;;;;5089885;27;20053;-52
2023/01/26 06:52:50;;;;;;;60.58;25.35;;;-1.30;99.90;;;;;;5093806;27;20043;-53
2023/01/26 06:55:37;;;;;;;58.17;25.02;;;-1.30;99.90;;;;;;5094357;27;20044;-53
2023/01/26 06:58:25;;;;;;;51.08;22.60;;;-1.30;99.90;;;;;;5084709;27;20207;-52
2023/01/26 07:01:17;;;;;;;50.63;23.43;;;-1.30;99.90;;;;;;5100969;27;20135;-52
2023/01/26 07:03:46;;;;;;;50.60;22.70;;;-1.30;99.90;;;;;;5106546;27;20445;-51
2023/01/26 07:06:13;;;;;;;64.72;24.42;;;-1.20;99.90;;;;;;5105534;27;20131;-50
2023/01/26 07:08:40;;;;;;;57.15;25.50;;;-1.20;99.90;;;;;;5108685;27;20039;-53
2023/01/26 07:11:08;;;;;;;62.72;26.50;;;-1.20;99.90;;;;;;5105930;27;20081;-50
2023/01/26 07:13:35;;;;;;;51.67;22.73;;;-1.20;99.90;;;;;;5103396;27;20031;-53
2023/01/26 07:16:06;;;;;;;;;;;-1.20;99.90;;;;;;5106847;27;20124;-54
2023/01/26 07:18:33;;;;;;;55.15;23.85;;;-1.20;99.90;;;;;;5107365;27;19923;-53
2023/01/26 07:21:01;;;;;;;55.03;22.90;;;-1.20;99.90;;;;;;5103828;27;20070;-52
2023/01/26 07:23:28;;;;;;;58.85;22.98;;;-1.20;99.90;;;;;;5103571;27;20039;-53
2023/01/26 07:25:55;;;;;;;54.75;23.70;;;-1.20;99.90;;;;;;5104916;27;20048;-50
2023/01/26 07:28:22;;;;;;;48.28;24.73;;;-1.10;99.90;;;;;;5104551;27;20412;-52
2023/01/26 07:30:49;;;;;;;56.10;26.45;;;-1.20;99.90;;;;;;5105158;27;20071;-50
2023/01/26 07:33:15;;;;;;;;;;;-1.10;99.90;;;;;;5106550;27;20047;-51
2023/01/26 07:35:42;;;;;;;54.50;22.58;;;-1.10;99.90;;;;;;5105062;27;19923;-52
2023/01/26 07:38:09;;;;;;;;;;;-1.20;99.90;;;;;;5106884;27;20349;-49
2023/01/26 07:40:36;;;;;;;56.13;23.73;;;-1.20;99.90;;;;;;5106493;27;20338;-50
2023/01/26 07:43:02;;;;;;;;;;;-1.20;99.90;;;;;;5105537;27;20049;-50
2023/01/26 07:45:50;;;;;;;60.83;25.15;;;-1.20;99.90;;;;;;5085595;27;19989;-52
2023/01/26 07:48:22;;;;;;;64.75;23.83;;;-1.20;99.90;;;;;;5101250;27;20642;-55
2023/01/26 07:50:49;;;;;;;57.88;24.02;;;-1.20;99.90;;;;;;5110084;27;20282;-57
2023/01/26 07:53:21;;;;;;;54.45;24.65;;;-1.10;99.90;;;;;;5107244;27;20044;-55
2023/01/26 07:55:48;;;;;;;59.95;26.10;;;-1.10;99.90;;;;;;5103521;27;20459;-53
2023/01/26 07:58:17;;;;;;;55.03;23.63;;;-1.10;99.90;;;;;;5103511;27;20334;-54
2023/01/26 08:00:46;;;;;;;59.75;25.35;;;-1.10;99.90;;;;;;5106913;27;20067;-51
2023/01/26 08:03:13;;;;;;;56.80;25.27;;;-1.20;99.90;;;;;;5105874;27;20051;-52
2023/01/26 08:05:42;;;;;;;59.60;25.42;;;-1.20;99.90;;;;;;5103202;27;20097;-51
2023/01/26 08:08:09;;;;;;;64.97;25.00;;;-1.20;99.90;;;;;;5101695;27;20349;-57
2023/01/26 08:10:35;;;;;;;;;;;-1.20;99.90;;;;;;5099110;27;20428;-56
2023/01/26 08:13:02;;;;;;;58.17;25.20;;;-1.20;99.90;;;;;;5104554;27;19980;-51
2023/01/26 08:15:29;;;;;;;58.83;25.15;;;-1.20;99.90;;;;;;5103999;27;20118;-50
2023/01/26 08:17:56;;;;;;;;;;;-1.20;99.90;;;;;;5105845;27;20061;-52
2023/01/26 08:22:56;;;;;;;55.10;24.17;;;-1.20;99.90;;;;;;5000419;28;20748;-53
2023/01/26 08:25:25;;;;;;;60.10;22.77;;;-1.20;99.90;;;;;;4992655;27;20280;-49
2023/01/26 08:27:53;;;;;;;;;;;-1.20;99.90;;;;;;5008036;27;20540;-53
2023/01/26 08:30:20;;;;;;;48.30;21.90;;;-1.10;99.90;;;;;;4992030;28;20462;-53
2023/01/26 08:32:46;;;;;;;54.90;22.85;;;-1.20;99.90;;;;;;4994560;28;20322;-50
2023/01/26 08:35:13;;;;;;;53.40;22.45;;;-1.10;99.90;;;;;;4994171;28;20089;-50
2023/01/26 08:37:40;;;;;;;53.47;23.92;;;-1.10;99.90;;;;;;4992090;28;20072;-50
2023/01/26 08:40:07;;;;;;;;;;;-1.10;99.90;;;;;;4989942;28;20054;-49
2023/01/26 08:42:34;;;;;;;49.83;21.77;;;-1.10;99.90;;;;;;4994769;28;19968;-52
2023/01/26 08:45:01;;;;;;;;;;;-1.10;99.90;;;;;;4993958;28;20038;-52
2023/01/26 08:47:28;;;;;;;56.90;24.55;;;-1.00;99.90;;;;;;4992761;28;20004;-50
2023/01/26 08:49:54;;;;;;;;;;;-1.00;99.90;;;;;;4992361;28;20045;-54
2023/01/26 08:52:21;;;;;;;59.30;25.08;;;-1.00;99.90;;;;;;4991807;28;19968;-51
2023/01/26 08:54:48;;;;;;;;;;;-1.00;99.90;;;;;;4999941;28;20208;-51
2023/01/26 08:57:15;;;;;;;53.45;24.02;;;-1.00;99.90;;;;;;4992503;28;19932;-53
2023/01/26 08:59:41;;;;;;;61.22;25.83;;;-1.00;99.90;;;;;;4989880;28;20738;-51
2023/01/26 09:02:09;;;;;;;;;;;-1.00;99.90;;;;;;4993368;28;20420;-52
2023/01/26 09:04:36;;;;;;;52.05;23.45;;;-1.00;99.90;;;;;;4993376;28;19933;-52
2023/01/26 09:07:02;;;;;;;;;;;-1.00;99.90;;;;;;4994645;28;20052;-51
2023/01/26 09:09:29;;;;;;;62.35;25.27;;;-0.90;99.90;;;;;;4989783;28;19925;-50
2023/01/26 09:11:56;;;;;;;;;;;-0.90;99.90;;;;;;4991176;28;20571;-53
2023/01/26 09:14:23;;;;;;;62.80;25.65;;;-0.90;99.90;;;;;;4995846;28;19936;-54
2023/01/26 09:16:50;;;;;;;62.03;26.55;;;-0.90;99.90;;;;;;4988415;28;20046;-50
2023/01/26 09:19:17;;;;;;;63.72;29.13;;;-0.90;99.90;;;;;;4991270;28;20061;-53
2023/01/26 09:21:43;;;;;;;;;;;-0.80;99.90;;;;;;4995368;28;20489;-55
2023/01/26 09:24:10;;;;;;;58.67;26.48;;;-0.80;99.90;;;;;;4992142;28;19921;-55
2023/01/26 09:26:37;;;;;;;61.95;29.00;;;-0.80;99.90;;;;;;4992550;28;20439;-55
2023/01/26 09:29:04;;;;;;;56.88;26.48;;;-0.80;99.90;;;;;;4991653;28;20500;-54
2023/01/26 09:31:30;;;;;;;;;;;-0.80;99.90;;;;;;4990575;28;20158;-55
2023/01/26 09:33:57;;;;;;;65.32;28.83;;;-0.70;99.90;;;;;;4978810;28;19921;-54
2023/01/26 09:36:24;;;;;;;;;;;-0.80;99.90;;;;;;4977978;28;20077;-54
2023/01/26 09:38:52;;;;;;;59.17;26.70;;;-0.80;99.90;;;;;;4978134;28;20033;-55
2023/01/26 09:41:45;;;;;;;58.33;26.65;;;-0.80;99.90;;;;;;4978405;28;20123;-51
2023/01/26 09:44:23;;;;;;;58.42;25.70;;;-0.80;99.90;;;;;;4981646;28;20037;-54
2023/01/26 09:46:55;;;;;;;62.70;30.20;;;-0.70;99.90;;;;;;4972838;28;20050;-58
2023/01/26 09:49:34;;;;;;;56.58;26.88;;;-0.70;99.90;;;;;;4966716;28;20605;-53
2023/01/26 09:52:09;;;;;;;46.22;24.05;;;-0.70;99.90;;;;;;4968847;28;20046;-59
2023/01/26 09:54:42;;;;;;;56.88;27.17;;;-0.70;99.90;;;;;;4967953;28;20038;-54
2023/01/26 09:57:16;;;;;;;57.85;27.48;;;-0.70;99.90;;;;;;4963771;28;20065;-53
2023/01/26 09:59:46;;;;;;;57.10;27.58;;;-0.80;99.90;;;;;;4966903;28;20618;-50
2023/01/26 10:02:32;;;;;;;61.65;27.38;;;-0.80;99.90;;;;;;4964701;28;20557;-52
2023/01/26 10:05:06;;;;;;;54.75;25.95;;;-0.70;99.90;;;;;;4969036;28;20058;-50
2023/01/26 10:08:49;;;;;;;56.10;25.30;;;-0.70;99.90;;;;;;5022338;28;20975;-49
2023/01/26 10:11:40;;;;;;;55.63;27.23;;;-0.80;99.90;;;;;;5023880;28;20440;-50
2023/01/26 10:14:06;;;;;;;56.92;26.67;;;-0.80;99.90;;;;;;5024014;28;20048;-50
2023/01/26 10:16:33;;;;;;;;;;;-0.80;99.90;;;;;;5024788;28;20038;-51
2023/01/26 10:19:11;;;;;;;54.88;25.30;;;-0.80;99.90;;;;;;5021969;28;19956;-52
2023/01/26 10:21:42;;;;;;;57.50;26.23;;;-0.70;99.90;;;;;;5030970;28;20587;-51
2023/01/26 10:24:12;;;;;;;63.15;27.35;;;-0.70;99.90;;;;;;5032263;28;20289;-50
2023/01/26 10:26:40;;;;;;;58.35;26.17;;;-0.70;99.90;;;;;;5025188;28;20064;-53
2023/01/26 10:29:14;;;;;;;58.97;28.00;;;-0.70;99.90;;;;;;5021848;28;20049;-52
2023/01/26 10:31:42;;;;;;;55.58;26.45;;;-0.70;99.90;;;;;;5022095;28;20059;-50
2023/01/26 10:34:16;;;;;;;59.85;27.73;;;-0.70;99.90;;;;;;5030692;28;20526;-52
2023/01/26 10:36:45;;;;;;;66.18;30.90;;;-0.70;99.90;;;;;;5022218;28;20045;-54
2023/01/26 10:39:14;;;;;;;55.75;26.73;;;-0.60;99.90;;;;;;5020141;28;20136;-53
2023/01/26 10:41:59;;;;;;;55.92;27.38;;;-0.60;99.90;;;;;;5023999;28;20664;-54
2023/01/26 10:44:29;;;;;;;62.38;29.27;;;-0.60;99.90;;;;;;5024157;28;20041;-53
2023/01/26 10:47:17;;;;;;;61.28;28.70;;;-0.60;99.90;;;;;;5021905;28;20119;-55
2023/01/26 10:49:44;;;;;;;60.97;26.88;;;-0.60;99.90;;;;;;5022029;28;20440;-50
2023/01/26 10:52:17;;;;;;;58.63;28.35;;;-0.60;99.90;;;;;;5024002;28;20611;-52
2023/01/26 10:54:45;;;;;;;57.83;25.45;;;-0.60;99.90;;;;;;5024769;28;20056;-52
2023/01/26 10:57:21;;;;;;;64.00;28.98;;;-0.60;99.90;;;;;;5022652;28;20052;-51
2023/01/26 10:59:50;;;;;;;66.10;28.95;;;-0.70;99.90;;;;;;5022137;28;20069;-51
2023/01/26 11:02:21;;;;;;;66.70;27.60;;;-0.70;99.90;;;;;;5022982;28;20449;-53
2023/01/26 11:05:08;;;;;;;61.38;28.25;;;-0.70;99.90;;;;;;5031101;28;20064;-52
2023/01/26 11:07:41;;;;;;;58.25;27.42;;;-0.60;99.90;;;;;;5019188;28;20251;-51
2023/01/26 11:10:22;;;;;;;56.38;27.55;;;-0.70;99.90;;;;;;5024299;28;20340;-52
2023/01/26 11:12:50;;;;;;;60.38;27.27;;;-0.60;99.90;;;;;;5026941;28;20084;-53
2023/01/26 11:15:18;;;;;;;61.05;28.02;;;-0.60;99.90;;;;;;5023145;28;20056;-53
2023/01/26 11:18:11;;;;;;;63.38;29.42;;;-0.60;99.90;;;;;;5022793;28;20246;-52
2023/01/26 11:20:47;;;;;;;57.05;27.23;;;-0.60;99.90;;;;;;5005681;28;20385;-52
2023/01/26 11:23:41;;;;;;;58.55;28.15;;;-0.60;99.90;;;;;;5008952;28;20582;-52
2023/01/26 11:26:20;;;;;;;57.55;24.83;;;-0.60;99.90;;;;;;5010987;28;20842;-53
2023/01/26 11:28:59;;;;;;;54.60;24.38;;;-0.60;99.90;;;;;;5008203;28;20421;-50
2023/01/26 11:31:31;;;;;;;58.03;25.80;;;-0.60;99.90;;;;;;5009762;28;20148;-51
2023/01/26 11:34:26;;;;;;;62.70;27.95;;;-0.60;99.90;;;;;;5017034;28;20225;-50
2023/01/26 11:37:30;;;;;;;58.45;25.90;;;-0.60;99.90;;;;;;5008389;28;20076;-52
2023/01/26 11:40:08;;;;;;;55.97;26.70;;;-0.60;99.90;;;;;;5007644;28;20749;-50
2023/01/26 11:42:42;;;;;;;57.95;27.67;;;-0.60;99.90;;;;;;5008386;28;20447;-53
2023/01/26 11:45:16;;;;;;;52.40;25.83;;;-0.60;99.90;;;;;;5009427;28;20301;-53
2023/01/26 11:47:58;;;;;;;58.53;26.00;;;-0.60;99.90;;;;;;5009417;28;20134;-52
2023/01/26 11:50:42;;;;;;;55.45;28.13;;;-0.60;99.90;;;;;;5016684;28;20033;-49
2023/01/26 11:53:40;;;;;;;53.30;23.67;;;-0.60;99.90;;;;;;5009164;28;20548;-49
2023/01/26 11:56:10;;;;;;;55.45;25.17;;;-0.60;99.90;;;;;;5015878;28;20436;-49
2023/01/26 11:58:41;;;;;;;47.00;22.63;;;-0.60;99.90;;;;;;5006444;28;20355;-52
2023/01/26 12:01:32;;;;;;;49.10;23.92;;;-0.70;99.90;;;;;;5007036;28;20132;-50
2023/01/26 12:03:59;;;;;;;50.80;22.10;;;-0.70;99.90;;;;;;5005412;28;20790;-51
2023/01/26 12:06:28;;;;;;;;;;;-0.70;99.90;;;;;;5010063;28;20095;-51
2023/01/26 12:09:31;;;;;;;48.97;21.65;;;-0.70;99.90;;;;;;5007569;28;19951;-51
2023/01/26 12:12:03;;;;;;;56.72;24.45;;;-0.70;99.90;;;;;;5009937;28;20080;-48
2023/01/26 12:14:54;;;;;;;52.97;23.67;;;-0.70;99.90;;;;;;5009738;28;20036;-52
2023/01/26 12:17:31;;;;;;;52.88;23.38;;;-0.70;99.90;;;;;;5008577;28;20057;-50
2023/01/26 12:20:04;;;;;;;45.00;21.50;;;-0.70;99.90;;;;;;5005036;28;20404;-52
2023/01/26 12:22:41;;;;;;;55.53;23.65;;;-0.70;99.90;;;;;;5007906;28;20136;-49
2023/01/26 12:25:25;;;;;;;60.33;25.38;;;-0.60;99.90;;;;;;5007494;28;20049;-49
2023/01/26 12:28:01;;;;;;;59.70;26.33;;;-0.60;99.90;;;;;;5010133;28;20045;-50
2023/01/26 12:30:48;;;;;;;47.78;22.42;;;-0.60;99.90;;;;;;5006093;28;20123;-53
2023/01/26 12:33:15;;;;;;;53.92;23.27;;;-0.60;99.90;;;;;;5008338;28;20121;-51
2023/01/26 12:35:51;;;;;;;53.55;23.50;;;-0.60;99.90;;;;;;5006532;28;20136;-49
2023/01/26 12:38:27;;;;;;;50.00;23.77;;;-0.60;99.90;;;;;;5009328;28;20044;-48
2023/01/26 12:41:09;;;;;;;50.58;23.35;;;-0.70;99.90;;;;;;5008657;28;20046;-50
2023/01/26 12:43:42;;;;;;;51.60;24.73;;;-0.70;99.90;;;;;;5007280;28;20048;-51
2023/01/26 12:46:10;;;;;;;52.75;23.55;;;-0.70;99.90;;;;;;5006438;28;20053;-52
2023/01/26 12:48:46;;;;;;;50.97;23.80;;;-0.70;99.90;;;;;;5008629;28;20048;-51
2023/01/26 12:51:23;;;;;;;47.92;23.60;;;-0.70;99.90;;;;;;5006607;28;20231;-52
2023/01/26 12:54:19;;;;;;;55.05;23.67;;;-0.70;99.90;;;;;;5010014;28;20040;-51
2023/01/26 12:56:52;;;;;;;56.08;26.35;;;-0.80;99.90;;;;;;5007531;28;20041;-50
2023/01/26 12:59:29;;;;;;;53.05;23.42;;;-0.80;99.90;;;;;;5005459;28;20063;-50
2023/01/26 13:02:33;;;;;;;48.08;20.80;;;-0.90;99.90;;;;;;5008533;28;20103;-57
2023/01/26 13:05:02;;;;;;;41.20;17.65;;;-0.90;99.90;;;;;;5015263;28;20466;-48
2023/01/26 13:07:34;;;;;;;49.25;21.52;;;-0.90;99.90;;;;;;5008489;28;20571;-50
2023/01/26 13:10:18;;;;;;;45.78;20.02;;;-0.80;99.90;;;;;;5006845;28;20749;-53
2023/01/26 13:13:20;;;;;;;51.28;22.60;;;-0.90;99.90;;;;;;5007286;28;20122;-57
2023/01/26 13:16:06;;;;;;;51.67;24.42;;;-0.80;99.90;;;;;;5009329;28;20041;-57
2023/01/26 13:18:48;;;;;;;53.45;23.95;;;-0.80;99.90;;;;;;5007608;28;20052;-56
2023/01/26 13:21:41;;;;;;;52.20;23.38;;;-0.80;99.90;;;;;;5009793;28;20679;-53
2023/01/26 13:24:17;;;;;;;58.30;25.08;;;-0.90;99.90;;;;;;5010415;28;20295;-56
2023/01/26 13:26:58;;;;;;;48.22;21.95;;;-0.90;99.90;;;;;;5005558;28;20385;-53
2023/01/26 13:29:24;;;;;;;54.35;22.75;;;-0.80;99.90;;;;;;5005061;28;20030;-52
2023/01/26 13:32:15;;;;;;;49.88;21.42;;;-0.90;99.90;;;;;;5006950;28;20080;-53
2023/01/26 13:34:48;;;;;;;50.55;23.13;;;-0.90;99.90;;;;;;4996076;28;20590;-50
2023/01/26 13:37:22;;;;;;;54.40;24.25;;;-0.90;99.90;;;;;;5007348;28;20037;-52
2023/01/26 13:40:02;;;;;;;47.13;22.35;;;-0.90;99.90;;;;;;5009275;28;20049;-53
2023/01/26 13:42:36;;;;;;;45.55;20.55;;;-0.80;99.90;;;;;;5007085;28;20366;-54
2023/01/26 13:45:12;;;;;;;45.10;21.02;;;-0.80;99.90;;;;;;5014203;28;20083;-53
2023/01/26 13:47:47;;;;;;;45.25;20.27;;;-0.80;99.90;;;;;;5008345;28;20447;-52
2023/01/26 13:50:40;;;;;;;44.88;19.95;;;-0.80;99.90;;;;;;5005862;28;20159;-54
2023/01/26 13:53:35;;;;;;;37.13;17.90;;;-0.80;99.90;;;;;;5005952;28;20048;-55
2023/01/26 13:56:05;;;;;;;45.78;20.33;;;-0.80;99.90;;;;;;5006295;28;20128;-54
2023/01/26 13:58:32;;;;;;;45.13;20.70;;;-0.80;99.90;;;;;;5005563;28;20161;-53
2023/01/26 14:01:11;;;;;;;57.53;24.58;;;-0.80;99.90;;;;;;5005919;28;20045;-53